Sidney, Canada
Current Conditions -  °F | °C
As of 12:00 AM on Wednesday 26 Nov 2014 (Local Time) from CYYJ Reporting Station
Light Rain Light Rain  
Wind Chill: 45°   Ceiling: 500
Heat Index: 45°   Visibility: 1.2mi
Dew Point: 43°   Wind: 2mph
Humidity: 93%   Direction: 360°N
Pressure: 30.13"   Gusts: NA
Location:  48.65°N, 123.42°W
Report Text: CYYJ 260800Z 36002KT 1 1/4SM -RA BR FEW003 BKN005 BKN008 OVC011 07/06 A3013 RMK SF2SF3SC2SC1 SLP203
Loading
Personal Weather Stations






























Interactive Weather Map New forecast layout! Learn more

10-Day Weather Forecast

Advertisements
Track Severe Weather on mobile